sensor_id;sensor_type;location;lat;lon;timestamp;temperature;humidity
26053;DHT22;13826;51.186;4.450;2022-08-27T00:01:36;18.30;61.70
26053;DHT22;13826;51.186;4.450;2022-08-27T00:04:02;18.40;1.00
26053;DHT22;13826;51.186;4.450;2022-08-27T00:06:27;18.40;1.00
26053;DHT22;13826;51.186;4.450;2022-08-27T00:08:54;18.50;1.00
26053;DHT22;13826;51.186;4.450;2022-08-27T00:11:21;18.50;1.00
26053;DHT22;13826;51.186;4.450;2022-08-27T00:13:49;18.50;1.00
26053;DHT22;13826;51.186;4.450;2022-08-27T00:16:16;18.40;1.00
26053;DHT22;13826;51.186;4.450;2022-08-27T00:18:44;18.40;44.10
26053;DHT22;13826;51.186;4.450;2022-08-27T00:21:11;18.20;99.90
26053;DHT22;13826;51.186;4.450;2022-08-27T00:23:37;18.20;99.90
26053;DHT22;13826;51.186;4.450;2022-08-27T00:26:04;18.20;1.00
26053;DHT22;13826;51.186;4.450;2022-08-27T00:28:31;18.20;1.00
26053;DHT22;13826;51.186;4.450;2022-08-27T00:30:57;18.10;1.00
26053;DHT22;13826;51.186;4.450;2022-08-27T00:33:24;18.00;1.00
26053;DHT22;13826;51.186;4.450;2022-08-27T00:35:50;18.10;1.00
26053;DHT22;13826;51.186;4.450;2022-08-27T00:38:17;18.00;1.00
26053;DHT22;13826;51.186;4.450;2022-08-27T00:40:43;18.10;1.00
26053;DHT22;13826;51.186;4.450;2022-08-27T00:43:09;18.00;1.00
26053;DHT22;13826;51.186;4.450;2022-08-27T00:45:40;17.90;1.00
26053;DHT22;13826;51.186;4.450;2022-08-27T00:48:08;17.80;99.90
26053;DHT22;13826;51.186;4.450;2022-08-27T00:50:41;17.90;68.10
26053;DHT22;13826;51.186;4.450;2022-08-27T00:53:11;17.90;94.20
26053;DHT22;13826;51.186;4.450;2022-08-27T00:55:48;17.90;98.10
26053;DHT22;13826;51.186;4.450;2022-08-27T00:58:21;17.90;99.90
26053;DHT22;13826;51.186;4.450;2022-08-27T01:00:50;17.90;99.90
26053;DHT22;13826;51.186;4.450;2022-08-27T01:03:15;17.90;99.90
26053;DHT22;13826;51.186;4.450;2022-08-27T01:05:43;17.90;99.90
26053;DHT22;13826;51.186;4.450;2022-08-27T01:08:16;18.00;99.90
26053;DHT22;13826;51.186;4.450;2022-08-27T01:10:43;18.00;39.50
26053;DHT22;13826;51.186;4.450;2022-08-27T01:13:10;18.00;61.90
26053;DHT22;13826;51.186;4.450;2022-08-27T01:15:38;17.90;99.90
26053;DHT22;13826;51.186;4.450;2022-08-27T01:18:05;17.90;99.90
26053;DHT22;13826;51.186;4.450;2022-08-27T01:21:09;17.80;99.90
26053;DHT22;13826;51.186;4.450;2022-08-27T01:26:33;17.70;99.90
26053;DHT22;13826;51.186;4.450;2022-08-27T01:28:59;17.70;99.90
26053;DHT22;13826;51.186;4.450;2022-08-27T01:31:25;17.70;99.90
26053;DHT22;13826;51.186;4.450;2022-08-27T01:34:03;17.70;99.90
26053;DHT22;13826;51.186;4.450;2022-08-27T01:36:31;17.60;99.90
26053;DHT22;13826;51.186;4.450;2022-08-27T01:38:57;17.60;99.90
26053;DHT22;13826;51.186;4.450;2022-08-27T01:41:23;17.60;99.90
26053;DHT22;13826;51.186;4.450;2022-08-27T01:43:49;17.70;99.90
26053;DHT22;13826;51.186;4.450;2022-08-27T01:46:21;17.60;99.90
26053;DHT22;13826;51.186;4.450;2022-08-27T01:48:47;17.60;99.90
26053;DHT22;13826;51.186;4.450;2022-08-27T01:51:12;17.50;99.90
26053;DHT22;13826;51.186;4.450;2022-08-27T01:53:38;17.50;99.90
26053;DHT22;13826;51.186;4.450;2022-08-27T01:56:04;17.60;99.90
26053;DHT22;13826;51.186;4.450;2022-08-27T01:58:31;17.60;99.90
26053;DHT22;13826;51.186;4.450;2022-08-27T02:01:01;17.40;99.90
26053;DHT22;13826;51.186;4.450;2022-08-27T02:03:28;17.30;1.00
26053;DHT22;13826;51.186;4.450;2022-08-27T02:05:53;17.40;1.00
26053;DHT22;13826;51.186;4.450;2022-08-27T02:08:19;17.40;1.00
26053;DHT22;13826;51.186;4.450;2022-08-27T02:10:47;17.50;99.90
26053;DHT22;13826;51.186;4.450;2022-08-27T02:13:14;17.50;99.90
26053;DHT22;13826;51.186;4.450;2022-08-27T02:15:40;17.50;99.90
26053;DHT22;13826;51.186;4.450;2022-08-27T02:18:07;17.50;99.90
26053;DHT22;13826;51.186;4.450;2022-08-27T02:20:33;17.50;1.00
26053;DHT22;13826;51.186;4.450;2022-08-27T02:22:59;17.40;1.00
26053;DHT22;13826;51.186;4.450;2022-08-27T02:25:25;17.50;1.00
26053;DHT22;13826;51.186;4.450;2022-08-27T02:27:53;17.50;99.90
26053;DHT22;13826;51.186;4.450;2022-08-27T02:30:22;17.50;99.90
26053;DHT22;13826;51.186;4.450;2022-08-27T02:32:49;17.50;99.90
26053;DHT22;13826;51.186;4.450;2022-08-27T02:35:17;17.50;99.90
26053;DHT22;13826;51.186;4.450;2022-08-27T02:37:44;17.50;1.00
26053;DHT22;13826;51.186;4.450;2022-08-27T02:40:13;17.50;1.00
26053;DHT22;13826;51.186;4.450;2022-08-27T02:42:44;17.40;1.00
26053;DHT22;13826;51.186;4.450;2022-08-27T02:45:11;17.40;1.00
26053;DHT22;13826;51.186;4.450;2022-08-27T02:47:37;17.40;1.00
26053;DHT22;13826;51.186;4.450;2022-08-27T02:50:04;17.40;1.00
26053;DHT22;13826;51.186;4.450;2022-08-27T02:52:29;17.40;1.00
26053;DHT22;13826;51.186;4.450;2022-08-27T02:54:56;17.30;1.00
26053;DHT22;13826;51.186;4.450;2022-08-27T02:57:22;17.20;1.00
26053;DHT22;13826;51.186;4.450;2022-08-27T02:59:49;17.20;1.00
26053;DHT22;13826;51.186;4.450;2022-08-27T03:02:15;17.20;1.00
26053;DHT22;13826;51.186;4.450;2022-08-27T03:04:41;17.10;1.00
26053;DHT22;13826;51.186;4.450;2022-08-27T03:07:07;17.30;1.00
26053;DHT22;13826;51.186;4.450;2022-08-27T03:09:33;17.30;1.00
26053;DHT22;13826;51.186;4.450;2022-08-27T03:11:59;17.30;1.00
26053;DHT22;13826;51.186;4.450;2022-08-27T03:14:26;17.20;1.00
26053;DHT22;13826;51.186;4.450;2022-08-27T03:16:52;17.10;1.00
26053;DHT22;13826;51.186;4.450;2022-08-27T03:19:18;17.10;1.00
26053;DHT22;13826;51.186;4.450;2022-08-27T03:21:45;17.00;1.00
26053;DHT22;13826;51.186;4.450;2022-08-27T03:24:11;16.90;1.00
26053;DHT22;13826;51.186;4.450;2022-08-27T03:26:37;16.90;1.00
26053;DHT22;13826;51.186;4.450;2022-08-27T03:29:03;16.80;1.00
26053;DHT22;13826;51.186;4.450;2022-08-27T03:31:29;16.80;1.00
26053;DHT22;13826;51.186;4.450;2022-08-27T03:34:03;16.90;1.00
26053;DHT22;13826;51.186;4.450;2022-08-27T03:36:31;16.90;1.00
26053;DHT22;13826;51.186;4.450;2022-08-27T03:38:58;16.90;1.00
26053;DHT22;13826;51.186;4.450;2022-08-27T03:41:24;16.80;1.00
26053;DHT22;13826;51.186;4.450;2022-08-27T03:43:50;16.80;1.00
26053;DHT22;13826;51.186;4.450;2022-08-27T03:46:19;16.80;1.00
26053;DHT22;13826;51.186;4.450;2022-08-27T03:48:45;16.80;1.00
26053;DHT22;13826;51.186;4.450;2022-08-27T03:51:13;16.70;1.00
26053;DHT22;13826;51.186;4.450;2022-08-27T03:53:41;16.60;1.00
26053;DHT22;13826;51.186;4.450;2022-08-27T03:56:07;16.50;1.00
26053;DHT22;13826;51.186;4.450;2022-08-27T03:58:34;16.40;1.00
26053;DHT22;13826;51.186;4.450;2022-08-27T04:01:01;16.40;1.00
26053;DHT22;13826;51.186;4.450;2022-08-27T04:03:27;16.40;1.00
26053;DHT22;13826;51.186;4.450;2022-08-27T04:05:54;16.40;1.00
26053;DHT22;13826;51.186;4.450;2022-08-27T04:08:21;16.40;1.00
26053;DHT22;13826;51.186;4.450;2022-08-27T04:10:48;16.50;1.00
26053;DHT22;13826;51.186;4.450;2022-08-27T04:13:14;16.50;1.00
26053;DHT22;13826;51.186;4.450;2022-08-27T04:15:45;16.50;1.00
26053;DHT22;13826;51.186;4.450;2022-08-27T04:18:12;16.50;1.00
26053;DHT22;13826;51.186;4.450;2022-08-27T04:20:40;16.40;1.00
26053;DHT22;13826;51.186;4.450;2022-08-27T04:23:05;16.50;1.00
26053;DHT22;13826;51.186;4.450;2022-08-27T04:25:31;16.50;1.00
26053;DHT22;13826;51.186;4.450;2022-08-27T04:27:57;16.60;1.00
26053;DHT22;13826;51.186;4.450;2022-08-27T04:30:23;16.60;1.00
26053;DHT22;13826;51.186;4.450;2022-08-27T04:32:49;16.50;1.00
26053;DHT22;13826;51.186;4.450;2022-08-27T04:35:15;16.40;1.00
26053;DHT22;13826;51.186;4.450;2022-08-27T04:37:41;16.30;1.00
26053;DHT22;13826;51.186;4.450;2022-08-27T04:40:09;16.30;1.00
26053;DHT22;13826;51.186;4.450;2022-08-27T04:42:35;16.40;1.00
26053;DHT22;13826;51.186;4.450;2022-08-27T04:45:00;16.50;1.00
26053;DHT22;13826;51.186;4.450;2022-08-27T04:47:27;16.60;1.00
26053;DHT22;13826;51.186;4.450;2022-08-27T04:49:53;16.70;1.00
26053;DHT22;13826;51.186;4.450;2022-08-27T04:52:18;16.80;1.00
26053;DHT22;13826;51.186;4.450;2022-08-27T04:54:44;16.70;1.00
26053;DHT22;13826;51.186;4.450;2022-08-27T04:57:10;16.60;1.00
26053;DHT22;13826;51.186;4.450;2022-08-27T04:59:35;16.50;1.00
26053;DHT22;13826;51.186;4.450;2022-08-27T05:02:03;16.50;1.00
26053;DHT22;13826;51.186;4.450;2022-08-27T05:04:30;16.50;1.00
26053;DHT22;13826;51.186;4.450;2022-08-27T05:06:56;16.40;1.00
26053;DHT22;13826;51.186;4.450;2022-08-27T05:09:22;16.20;1.00
26053;DHT22;13826;51.186;4.450;2022-08-27T05:11:47;16.20;1.00
26053;DHT22;13826;51.186;4.450;2022-08-27T05:14:14;16.40;1.00
26053;DHT22;13826;51.186;4.450;2022-08-27T05:16:40;16.30;1.00
26053;DHT22;13826;51.186;4.450;2022-08-27T05:19:09;16.50;1.00
26053;DHT22;13826;51.186;4.450;2022-08-27T05:21:38;16.50;1.00
26053;DHT22;13826;51.186;4.450;2022-08-27T05:24:06;16.60;1.00
26053;DHT22;13826;51.186;4.450;2022-08-27T05:26:33;16.70;1.00
26053;DHT22;13826;51.186;4.450;2022-08-27T05:29:00;16.80;1.00
26053;DHT22;13826;51.186;4.450;2022-08-27T05:31:26;16.90;1.00
26053;DHT22;13826;51.186;4.450;2022-08-27T05:33:53;17.10;1.00
26053;DHT22;13826;51.186;4.450;2022-08-27T05:36:26;17.30;1.00
26053;DHT22;13826;51.186;4.450;2022-08-27T05:38:53;17.50;1.00
26053;DHT22;13826;51.186;4.450;2022-08-27T05:41:21;17.60;1.00
26053;DHT22;13826;51.186;4.450;2022-08-27T05:43:50;17.70;1.00
26053;DHT22;13826;51.186;4.450;2022-08-27T05:46:18;17.80;1.00
26053;DHT22;13826;51.186;4.450;2022-08-27T05:48:44;18.00;1.00
26053;DHT22;13826;51.186;4.450;2022-08-27T05:51:12;18.40;99.90
26053;DHT22;13826;51.186;4.450;2022-08-27T05:53:38;18.70;99.90
26053;DHT22;13826;51.186;4.450;2022-08-27T05:56:09;19.20;1.00
26053;DHT22;13826;51.186;4.450;2022-08-27T05:58:36;19.70;1.00
26053;DHT22;13826;51.186;4.450;2022-08-27T06:01:21;19.90;99.90
26053;DHT22;13826;51.186;4.450;2022-08-27T06:03:48;19.90;41.20
26053;DHT22;13826;51.186;4.450;2022-08-27T06:06:13;20.00;99.90
26053;DHT22;13826;51.186;4.450;2022-08-27T06:08:39;20.20;99.90
26053;DHT22;13826;51.186;4.450;2022-08-27T06:11:06;20.30;1.00
26053;DHT22;13826;51.186;4.450;2022-08-27T06:13:33;20.30;1.00
26053;DHT22;13826;51.186;4.450;2022-08-27T06:16:01;20.10;99.90
26053;DHT22;13826;51.186;4.450;2022-08-27T06:18:26;20.20;58.40
26053;DHT22;13826;51.186;4.450;2022-08-27T06:20:52;20.40;1.00
26053;DHT22;13826;51.186;4.450;2022-08-27T06:23:18;20.50;99.90
26053;DHT22;13826;51.186;4.450;2022-08-27T06:25:43;20.80;99.90
26053;DHT22;13826;51.186;4.450;2022-08-27T06:28:09;22.00;99.90
26053;DHT22;13826;51.186;4.450;2022-08-27T06:30:35;24.10;99.90
26053;DHT22;13826;51.186;4.450;2022-08-27T06:33:01;26.00;38.60
26053;DHT22;13826;51.186;4.450;2022-08-27T06:35:27;26.90;1.00
26053;DHT22;13826;51.186;4.450;2022-08-27T06:37:52;28.20;1.00
26053;DHT22;13826;51.186;4.450;2022-08-27T06:40:18;28.70;1.00
26053;DHT22;13826;51.186;4.450;2022-08-27T06:42:44;28.90;1.00
26053;DHT22;13826;51.186;4.450;2022-08-27T06:45:10;29.60;1.00
26053;DHT22;13826;51.186;4.450;2022-08-27T06:47:35;30.50;1.00
26053;DHT22;13826;51.186;4.450;2022-08-27T06:50:01;31.70;1.00
26053;DHT22;13826;51.186;4.450;2022-08-27T06:52:27;31.60;1.00
26053;DHT22;13826;51.186;4.450;2022-08-27T06:54:52;31.80;1.00
26053;DHT22;13826;51.186;4.450;2022-08-27T06:57:18;31.50;1.00
26053;DHT22;13826;51.186;4.450;2022-08-27T06:59:44;31.30;1.00
26053;DHT22;13826;51.186;4.450;2022-08-27T07:02:09;31.60;1.00
26053;DHT22;13826;51.186;4.450;2022-08-27T07:04:35;32.50;1.00
26053;DHT22;13826;51.186;4.450;2022-08-27T07:07:02;33.40;1.00
26053;DHT22;13826;51.186;4.450;2022-08-27T07:09:29;32.70;1.00
26053;DHT22;13826;51.186;4.450;2022-08-27T07:11:57;33.60;1.00
26053;DHT22;13826;51.186;4.450;2022-08-27T07:14:23;33.90;1.00
26053;DHT22;13826;51.186;4.450;2022-08-27T07:16:49;32.70;1.00
26053;DHT22;13826;51.186;4.450;2022-08-27T07:19:16;32.70;1.00
26053;DHT22;13826;51.186;4.450;2022-08-27T07:21:41;33.80;1.00
26053;DHT22;13826;51.186;4.450;2022-08-27T07:24:07;35.10;1.00
26053;DHT22;13826;51.186;4.450;2022-08-27T07:26:38;35.60;1.00
26053;DHT22;13826;51.186;4.450;2022-08-27T07:29:05;35.90;1.00
26053;DHT22;13826;51.186;4.450;2022-08-27T07:31:34;35.10;1.00
26053;DHT22;13826;51.186;4.450;2022-08-27T07:34:04;35.60;1.00
26053;DHT22;13826;51.186;4.450;2022-08-27T07:36:30;36.30;1.00
26053;DHT22;13826;51.186;4.450;2022-08-27T07:38:56;36.10;1.00
26053;DHT22;13826;51.186;4.450;2022-08-27T07:41:22;36.40;1.00
26053;DHT22;13826;51.186;4.450;2022-08-27T07:43:47;36.20;1.00
26053;DHT22;13826;51.186;4.450;2022-08-27T07:46:32;36.00;1.00
26053;DHT22;13826;51.186;4.450;2022-08-27T07:48:57;36.00;1.00
26053;DHT22;13826;51.186;4.450;2022-08-27T07:51:25;35.40;1.00
26053;DHT22;13826;51.186;4.450;2022-08-27T07:53:51;35.80;1.00
26053;DHT22;13826;51.186;4.450;2022-08-27T07:56:18;35.40;1.00
26053;DHT22;13826;51.186;4.450;2022-08-27T07:58:44;35.60;1.00
26053;DHT22;13826;51.186;4.450;2022-08-27T08:01:11;36.70;1.00
26053;DHT22;13826;51.186;4.450;2022-08-27T08:03:38;37.20;1.00
26053;DHT22;13826;51.186;4.450;2022-08-27T08:06:10;36.50;1.00
26053;DHT22;13826;51.186;4.450;2022-08-27T08:08:38;36.50;1.00
26053;DHT22;13826;51.186;4.450;2022-08-27T08:11:06;35.70;1.00
26053;DHT22;13826;51.186;4.450;2022-08-27T08:13:32;35.90;1.00
26053;DHT22;13826;51.186;4.450;2022-08-27T08:15:57;35.10;1.00
26053;DHT22;13826;51.186;4.450;2022-08-27T08:18:24;36.50;1.00
26053;DHT22;13826;51.186;4.450;2022-08-27T08:20:49;37.40;1.00
26053;DHT22;13826;51.186;4.450;2022-08-27T08:23:15;38.00;1.00
26053;DHT22;13826;51.186;4.450;2022-08-27T08:25:41;37.20;1.00
26053;DHT22;13826;51.186;4.450;2022-08-27T08:28:07;37.80;1.00
26053;DHT22;13826;51.186;4.450;2022-08-27T08:30:34;37.20;1.00
26053;DHT22;13826;51.186;4.450;2022-08-27T08:32:59;36.10;1.00
26053;DHT22;13826;51.186;4.450;2022-08-27T08:35:26;33.50;1.00
26053;DHT22;13826;51.186;4.450;2022-08-27T08:37:51;32.20;1.00
26053;DHT22;13826;51.186;4.450;2022-08-27T08:40:29;31.70;1.00
26053;DHT22;13826;51.186;4.450;2022-08-27T08:42:55;32.90;1.00
26053;DHT22;13826;51.186;4.450;2022-08-27T08:45:26;34.90;1.00
26053;DHT22;13826;51.186;4.450;2022-08-27T08:48:09;36.60;1.00
26053;DHT22;13826;51.186;4.450;2022-08-27T08:50:52;36.20;1.00
26053;DHT22;13826;51.186;4.450;2022-08-27T08:56:16;37.50;1.00
26053;DHT22;13826;51.186;4.450;2022-08-27T08:58:48;37.80;1.00
26053;DHT22;13826;51.186;4.450;2022-08-27T09:01:17;38.40;1.00
26053;DHT22;13826;51.186;4.450;2022-08-27T09:03:59;38.00;1.00
26053;DHT22;13826;51.186;4.450;2022-08-27T09:06:52;38.30;1.00
26053;DHT22;13826;51.186;4.450;2022-08-27T09:09:49;38.20;1.00
26053;DHT22;13826;51.186;4.450;2022-08-27T09:12:24;39.40;1.00
26053;DHT22;13826;51.186;4.450;2022-08-27T09:14:57;39.80;1.00
26053;DHT22;13826;51.186;4.450;2022-08-27T09:17:25;40.30;1.00
26053;DHT22;13826;51.186;4.450;2022-08-27T09:19:51;39.70;1.00
26053;DHT22;13826;51.186;4.450;2022-08-27T09:25:21;38.20;1.00
26053;DHT22;13826;51.186;4.450;2022-08-27T09:27:51;38.80;1.00
26053;DHT22;13826;51.186;4.450;2022-08-27T09:30:23;40.00;1.00
26053;DHT22;13826;51.186;4.450;2022-08-27T09:32:56;39.40;1.00
26053;DHT22;13826;51.186;4.450;2022-08-27T09:35:24;39.00;1.00
26053;DHT22;13826;51.186;4.450;2022-08-27T09:37:52;38.90;1.00
26053;DHT22;13826;51.186;4.450;2022-08-27T09:40:28;38.20;1.00
26053;DHT22;13826;51.186;4.450;2022-08-27T09:46:00;39.10;1.00
26053;DHT22;13826;51.186;4.450;2022-08-27T09:48:35;38.40;1.00
26053;DHT22;13826;51.186;4.450;2022-08-27T09:51:07;38.10;1.00
26053;DHT22;13826;51.186;4.450;2022-08-27T09:53:47;38.40;1.00
26053;DHT22;13826;51.186;4.450;2022-08-27T09:56:30;38.80;1.00
26053;DHT22;13826;51.186;4.450;2022-08-27T09:59:06;37.30;1.00
26053;DHT22;13826;51.186;4.450;2022-08-27T10:02:01;37.00;1.00
26053;DHT22;13826;51.186;4.450;2022-08-27T10:04:39;35.80;1.00
26053;DHT22;13826;51.186;4.450;2022-08-27T10:10:23;32.20;1.00
26053;DHT22;13826;51.186;4.450;2022-08-27T10:13:25;30.50;1.00
26053;DHT22;13826;51.186;4.450;2022-08-27T10:16:29;30.20;1.00
26053;DHT22;13826;51.186;4.450;2022-08-27T10:30:20;28.50;1.00
26053;DHT22;13826;51.186;4.450;2022-08-27T10:35:49;28.90;1.00
26053;DHT22;13826;51.186;4.450;2022-08-27T10:41:32;28.40;1.00
26053;DHT22;13826;51.186;4.450;2022-08-27T10:54:46;28.30;1.00
26053;DHT22;13826;51.186;4.450;2022-08-27T11:03:00;27.80;1.00
26053;DHT22;13826;51.186;4.450;2022-08-27T11:05:44;27.90;1.00
26053;DHT22;13826;51.186;4.450;2022-08-27T11:08:37;28.10;1.00
26053;DHT22;13826;51.186;4.450;2022-08-27T11:11:09;28.00;1.00
26053;DHT22;13826;51.186;4.450;2022-08-27T11:13:40;28.40;1.00
26053;DHT22;13826;51.186;4.450;2022-08-27T11:16:24;28.40;1.00
26053;DHT22;13826;51.186;4.450;2022-08-27T11:18:57;28.10;1.00
26053;DHT22;13826;51.186;4.450;2022-08-27T11:21:42;29.10;1.00
26053;DHT22;13826;51.186;4.450;2022-08-27T11:24:34;29.30;1.00
26053;DHT22;13826;51.186;4.450;2022-08-27T11:27:05;29.30;1.00
26053;DHT22;13826;51.186;4.450;2022-08-27T11:29:45;29.50;1.00
26053;DHT22;13826;51.186;4.450;2022-08-27T11:34:59;29.30;1.00
26053;DHT22;13826;51.186;4.450;2022-08-27T11:43:02;29.50;1.00
26053;DHT22;13826;51.186;4.450;2022-08-27T11:45:34;29.60;1.00
26053;DHT22;13826;51.186;4.450;2022-08-27T11:48:24;29.80;1.00
26053;DHT22;13826;51.186;4.450;2022-08-27T11:53:58;30.40;1.00
26053;DHT22;13826;51.186;4.450;2022-08-27T11:59:09;29.80;1.00
26053;DHT22;13826;51.186;4.450;2022-08-27T12:01:35;29.60;1.00
26053;DHT22;13826;51.186;4.450;2022-08-27T12:04:04;29.70;1.00
26053;DHT22;13826;51.186;4.450;2022-08-27T12:06:42;29.50;1.00
26053;DHT22;13826;51.186;4.450;2022-08-27T12:09:15;29.10;1.00
26053;DHT22;13826;51.186;4.450;2022-08-27T12:14:28;29.20;1.00
26053;DHT22;13826;51.186;4.450;2022-08-27T12:17:11;29.20;1.00
26053;DHT22;13826;51.186;4.450;2022-08-27T12:22:54;28.90;1.00
26053;DHT22;13826;51.186;4.450;2022-08-27T12:25:39;28.60;1.00
26053;DHT22;13826;51.186;4.450;2022-08-27T12:28:07;28.50;1.00
26053;DHT22;13826;51.186;4.450;2022-08-27T12:30:39;28.40;1.00
26053;DHT22;13826;51.186;4.450;2022-08-27T12:36:13;28.30;1.00
26053;DHT22;13826;51.186;4.450;2022-08-27T12:38:44;28.00;1.00
26053;DHT22;13826;51.186;4.450;2022-08-27T12:41:30;27.90;1.00
26053;DHT22;13826;51.186;4.450;2022-08-27T12:44:05;27.50;1.00
26053;DHT22;13826;51.186;4.450;2022-08-27T12:46:31;27.10;1.00
26053;DHT22;13826;51.186;4.450;2022-08-27T12:48:59;27.20;1.00
26053;DHT22;13826;51.186;4.450;2022-08-27T12:51:30;26.80;1.00
26053;DHT22;13826;51.186;4.450;2022-08-27T12:57:16;26.90;1.00
26053;DHT22;13826;51.186;4.450;2022-08-27T13:03:06;26.70;1.00
26053;DHT22;13826;51.186;4.450;2022-08-27T13:05:38;26.80;1.00
26053;DHT22;13826;51.186;4.450;2022-08-27T13:08:04;27.00;1.00
26053;DHT22;13826;51.186;4.450;2022-08-27T13:10:31;27.00;1.00
26053;DHT22;13826;51.186;4.450;2022-08-27T13:13:20;26.70;1.00
26053;DHT22;13826;51.186;4.450;2022-08-27T13:15:53;26.40;1.00
26053;DHT22;13826;51.186;4.450;2022-08-27T13:18:20;26.60;1.00
26053;DHT22;13826;51.186;4.450;2022-08-27T13:20:47;26.60;1.00
26053;DHT22;13826;51.186;4.450;2022-08-27T13:23:16;26.70;1.00
26053;DHT22;13826;51.186;4.450;2022-08-27T13:28:21;26.50;1.00
26053;DHT22;13826;51.186;4.450;2022-08-27T13:30:49;26.50;1.00
26053;DHT22;13826;51.186;4.450;2022-08-27T13:33:23;26.40;1.00
26053;DHT22;13826;51.186;4.450;2022-08-27T13:35:49;26.50;1.00
26053;DHT22;13826;51.186;4.450;2022-08-27T13:38:17;26.40;1.00
26053;DHT22;13826;51.186;4.450;2022-08-27T13:43:18;26.30;1.00
26053;DHT22;13826;51.186;4.450;2022-08-27T13:45:48;26.50;1.00
26053;DHT22;13826;51.186;4.450;2022-08-27T13:48:19;26.30;1.00
26053;DHT22;13826;51.186;4.450;2022-08-27T13:50:51;26.10;1.00
26053;DHT22;13826;51.186;4.450;2022-08-27T13:53:30;26.20;1.00
26053;DHT22;13826;51.186;4.450;2022-08-27T14:07:21;25.60;1.00
26053;DHT22;13826;51.186;4.450;2022-08-27T14:12:44;25.80;1.00
26053;DHT22;13826;51.186;4.450;2022-08-27T14:15:20;25.50;1.00
26053;DHT22;13826;51.186;4.450;2022-08-27T14:17:47;25.70;1.00
26053;DHT22;13826;51.186;4.450;2022-08-27T14:20:14;25.40;1.00
26053;DHT22;13826;51.186;4.450;2022-08-27T14:22:42;25.60;1.00
26053;DHT22;13826;51.186;4.450;2022-08-27T14:25:08;25.80;1.00
26053;DHT22;13826;51.186;4.450;2022-08-27T14:27:35;25.80;1.00
26053;DHT22;13826;51.186;4.450;2022-08-27T14:30:01;25.80;1.00
26053;DHT22;13826;51.186;4.450;2022-08-27T14:32:26;25.70;1.00
26053;DHT22;13826;51.186;4.450;2022-08-27T14:34:52;25.60;1.00
26053;DHT22;13826;51.186;4.450;2022-08-27T14:37:18;25.90;1.00
26053;DHT22;13826;51.186;4.450;2022-08-27T14:39:44;25.90;1.00
26053;DHT22;13826;51.186;4.450;2022-08-27T14:42:10;25.80;1.00
26053;DHT22;13826;51.186;4.450;2022-08-27T14:44:36;25.60;1.00
26053;DHT22;13826;51.186;4.450;2022-08-27T14:47:03;25.70;1.00
26053;DHT22;13826;51.186;4.450;2022-08-27T14:49:35;25.50;1.00
26053;DHT22;13826;51.186;4.450;2022-08-27T14:52:03;25.60;1.00
26053;DHT22;13826;51.186;4.450;2022-08-27T14:54:29;25.50;1.00
26053;DHT22;13826;51.186;4.450;2022-08-27T14:56:56;25.20;1.00
26053;DHT22;13826;51.186;4.450;2022-08-27T14:59:23;25.00;1.00
26053;DHT22;13826;51.186;4.450;2022-08-27T15:01:50;24.90;1.00
26053;DHT22;13826;51.186;4.450;2022-08-27T15:04:16;24.70;1.00
26053;DHT22;13826;51.186;4.450;2022-08-27T15:06:42;24.70;1.00
26053;DHT22;13826;51.186;4.450;2022-08-27T15:09:07;24.60;1.00
26053;DHT22;13826;51.186;4.450;2022-08-27T15:11:35;24.80;1.00
26053;DHT22;13826;51.186;4.450;2022-08-27T15:14:13;24.80;1.00
26053;DHT22;13826;51.186;4.450;2022-08-27T15:16:41;25.10;1.00
26053;DHT22;13826;51.186;4.450;2022-08-27T15:19:09;25.10;1.00
26053;DHT22;13826;51.186;4.450;2022-08-27T15:21:36;25.10;1.00
26053;DHT22;13826;51.186;4.450;2022-08-27T15:24:24;25.20;1.00
26053;DHT22;13826;51.186;4.450;2022-08-27T15:26:52;25.50;1.00
26053;DHT22;13826;51.186;4.450;2022-08-27T15:29:19;25.60;1.00
26053;DHT22;13826;51.186;4.450;2022-08-27T15:31:45;25.50;1.00
26053;DHT22;13826;51.186;4.450;2022-08-27T15:34:11;25.60;1.00
26053;DHT22;13826;51.186;4.450;2022-08-27T15:36:38;25.50;1.00
26053;DHT22;13826;51.186;4.450;2022-08-27T15:39:04;25.50;1.00
26053;DHT22;13826;51.186;4.450;2022-08-27T15:41:31;25.50;1.00
26053;DHT22;13826;51.186;4.450;2022-08-27T15:43:57;25.70;1.00
26053;DHT22;13826;51.186;4.450;2022-08-27T15:46:23;25.50;1.00
26053;DHT22;13826;51.186;4.450;2022-08-27T15:48:50;25.70;1.00
26053;DHT22;13826;51.186;4.450;2022-08-27T15:51:17;25.90;1.00
26053;DHT22;13826;51.186;4.450;2022-08-27T15:53:46;25.70;1.00
26053;DHT22;13826;51.186;4.450;2022-08-27T15:56:11;25.70;1.00
26053;DHT22;13826;51.186;4.450;2022-08-27T15:58:37;25.50;1.00
26053;DHT22;13826;51.186;4.450;2022-08-27T16:01:14;25.40;1.00
26053;DHT22;13826;51.186;4.450;2022-08-27T16:03:43;25.30;1.00
26053;DHT22;13826;51.186;4.450;2022-08-27T16:06:10;25.00;1.00
26053;DHT22;13826;51.186;4.450;2022-08-27T16:08:37;25.10;1.00
26053;DHT22;13826;51.186;4.450;2022-08-27T16:11:02;25.00;1.00
26053;DHT22;13826;51.186;4.450;2022-08-27T16:13:28;25.10;1.00
26053;DHT22;13826;51.186;4.450;2022-08-27T16:15:55;25.20;1.00
26053;DHT22;13826;51.186;4.450;2022-08-27T16:18:27;25.10;1.00
26053;DHT22;13826;51.186;4.450;2022-08-27T16:20:54;24.90;1.00
26053;DHT22;13826;51.186;4.450;2022-08-27T16:23:22;25.00;1.00
26053;DHT22;13826;51.186;4.450;2022-08-27T16:25:48;24.90;1.00
26053;DHT22;13826;51.186;4.450;2022-08-27T16:28:14;24.60;1.00
26053;DHT22;13826;51.186;4.450;2022-08-27T16:30:40;24.80;1.00
26053;DHT22;13826;51.186;4.450;2022-08-27T16:33:06;24.70;1.00
26053;DHT22;13826;51.186;4.450;2022-08-27T16:35:35;24.90;1.00
26053;DHT22;13826;51.186;4.450;2022-08-27T16:38:01;24.80;1.00
26053;DHT22;13826;51.186;4.450;2022-08-27T16:40:27;24.60;1.00
26053;DHT22;13826;51.186;4.450;2022-08-27T16:42:53;24.60;1.00
26053;DHT22;13826;51.186;4.450;2022-08-27T16:45:21;24.10;1.00
26053;DHT22;13826;51.186;4.450;2022-08-27T16:47:48;24.20;1.00
26053;DHT22;13826;51.186;4.450;2022-08-27T16:50:32;24.20;1.00
26053;DHT22;13826;51.186;4.450;2022-08-27T16:53:10;23.90;1.00
26053;DHT22;13826;51.186;4.450;2022-08-27T16:55:40;23.80;1.00
26053;DHT22;13826;51.186;4.450;2022-08-27T16:58:30;23.60;1.00
26053;DHT22;13826;51.186;4.450;2022-08-27T17:00:57;23.50;1.00
26053;DHT22;13826;51.186;4.450;2022-08-27T17:03:24;23.50;1.00
26053;DHT22;13826;51.186;4.450;2022-08-27T17:05:50;23.70;1.00
26053;DHT22;13826;51.186;4.450;2022-08-27T17:08:18;23.70;1.00
26053;DHT22;13826;51.186;4.450;2022-08-27T17:10:47;23.70;1.00
26053;DHT22;13826;51.186;4.450;2022-08-27T17:13:15;23.80;1.00
26053;DHT22;13826;51.186;4.450;2022-08-27T17:15:42;23.80;1.00
26053;DHT22;13826;51.186;4.450;2022-08-27T17:18:08;23.60;1.00
26053;DHT22;13826;51.186;4.450;2022-08-27T17:20:34;23.60;1.00
26053;DHT22;13826;51.186;4.450;2022-08-27T17:23:01;23.80;1.00
26053;DHT22;13826;51.186;4.450;2022-08-27T17:25:28;23.80;1.00
26053;DHT22;13826;51.186;4.450;2022-08-27T17:27:54;23.90;1.00
26053;DHT22;13826;51.186;4.450;2022-08-27T17:30:19;23.80;1.00
26053;DHT22;13826;51.186;4.450;2022-08-27T17:32:46;23.60;1.00
26053;DHT22;13826;51.186;4.450;2022-08-27T17:35:13;23.40;1.00